Time;durP1;ratioP1;P1;durP2;ratioP2;P2;SDS_P1;SDS_P2;PMS_P1;PMS_P2;Temp;Humidity;BMP_temperature;BMP_pressure;BME280_temperature;BME280_humidity;BME280_pressure;Samples;Min_cycle;Max_cycle;Signal;HPM_P1;HPM_P2
2022/07/03 00:01:48;;;;;;;3.17;2.08;;;18.20;99.90;;;;;;4859799;29;20102;-38
2022/07/03 00:04:14;;;;;;;3.30;2.00;;;18.20;99.90;;;;;;4858666;29;20049;-38
2022/07/03 00:06:40;;;;;;;4.50;2.55;;;18.10;99.90;;;;;;4846274;29;20049;-38
2022/07/03 00:09:06;;;;;;;3.25;2.22;;;18.10;99.90;;;;;;4842773;29;20089;-38
2022/07/03 00:11:32;;;;;;;2.00;1.63;;;18.00;99.90;;;;;;4842455;29;20133;-38
2022/07/03 00:13:58;;;;;;;3.90;1.95;;;17.90;99.90;;;;;;4858183;29;20049;-38
2022/07/03 00:16:24;;;;;;;5.78;2.10;;;17.90;99.90;;;;;;4838516;29;20077;-39
2022/07/03 00:18:50;;;;;;;3.50;2.17;;;17.80;99.90;;;;;;4855607;29;20080;-38
2022/07/03 00:21:28;;;;;;;5.45;2.42;;;17.80;99.90;;;;;;4859004;29;20087;-38
2022/07/03 00:24:04;;;;;;;2.67;1.88;;;17.80;99.90;;;;;;4855242;29;20493;-38
2022/07/03 00:26:34;;;;;;;2.25;1.67;;;17.70;99.90;;;;;;4834996;29;20046;-38
2022/07/03 00:29:01;;;;;;;2.20;1.90;;;17.70;99.90;;;;;;4845206;29;20265;-38
2022/07/03 00:31:30;;;;;;;2.47;1.95;;;17.60;99.90;;;;;;4858186;29;20049;-38
2022/07/03 00:33:59;;;;;;;8.23;2.40;;;17.60;99.90;;;;;;4846713;29;20065;-38
2022/07/03 00:36:45;;;;;;;3.45;2.08;;;17.50;99.90;;;;;;4842769;29;20527;-38
2022/07/03 00:39:11;;;;;;;4.55;2.05;;;17.40;99.90;;;;;;4844350;29;20085;-38
2022/07/03 00:41:37;;;;;;;3.78;2.38;;;17.30;99.90;;;;;;4840661;29;20054;-38
2022/07/03 00:44:03;;;;;;;3.15;1.88;;;17.30;99.90;;;;;;4852379;29;20521;-38
2022/07/03 00:46:29;;;;;;;2.17;1.90;;;17.30;99.90;;;;;;4846830;29;20462;-38
2022/07/03 00:48:57;;;;;;;3.55;2.20;;;17.20;99.90;;;;;;4854880;29;20062;-37
2022/07/03 00:51:25;;;;;;;2.30;2.03;;;17.20;99.90;;;;;;4851582;29;20406;-39
2022/07/03 00:53:53;;;;;;;4.05;2.33;;;17.10;99.90;;;;;;4836809;29;20425;-38
2022/07/03 00:56:25;;;;;;;3.72;2.22;;;17.10;99.90;;;;;;4848465;29;20793;-39
2022/07/03 00:58:56;;;;;;;3.70;2.05;;;17.00;99.90;;;;;;4839159;29;20049;-38
2022/07/03 01:01:23;;;;;;;;;;;17.00;99.90;;;;;;4839613;29;20082;-38
2022/07/03 01:04:05;;;;;;;2.92;2.30;;;16.90;99.90;;;;;;4839283;29;19935;-39
2022/07/03 01:06:43;;;;;;;4.40;2.42;;;16.90;99.90;;;;;;4838866;29;20631;-39
2022/07/03 01:09:10;;;;;;;4.40;2.30;;;16.80;99.90;;;;;;4847151;29;20046;-38
2022/07/03 01:11:45;;;;;;;7.78;2.28;;;16.80;99.90;;;;;;4844539;29;20076;-38
2022/07/03 01:14:56;;;;;;;3.58;2.60;;;16.70;99.90;;;;;;4839108;29;20049;-38
2022/07/03 01:17:31;;;;;;;5.60;2.30;;;16.70;99.90;;;;;;4795667;29;20057;-38
2022/07/03 01:20:02;;;;;;;4.68;2.10;;;16.60;99.90;;;;;;4839891;29;20090;-38
2022/07/03 01:22:33;;;;;;;3.67;2.50;;;16.60;99.90;;;;;;4839623;29;20095;-38
2022/07/03 01:25:36;;;;;;;4.18;2.75;;;16.50;99.90;;;;;;4832372;29;20505;-38
2022/07/03 01:28:12;;;;;;;5.50;2.80;;;16.50;99.90;;;;;;4828469;29;20050;-38
2022/07/03 01:30:49;;;;;;;4.05;2.30;;;16.40;99.90;;;;;;4841543;29;20053;-38
2022/07/03 01:33:22;;;;;;;3.83;2.58;;;16.40;99.90;;;;;;4857355;29;20050;-38
2022/07/03 01:36:00;;;;;;;5.47;2.50;;;16.30;99.90;;;;;;4850391;29;20133;-38
2022/07/03 01:38:28;;;;;;;4.88;2.63;;;16.30;99.90;;;;;;4843092;29;20057;-38
2022/07/03 01:40:55;;;;;;;6.05;2.83;;;16.30;99.90;;;;;;4840252;29;20068;-38
2022/07/03 01:43:29;;;;;;;3.75;2.60;;;16.20;99.90;;;;;;4857267;29;20382;-38
2022/07/03 01:45:57;;;;;;;5.70;2.80;;;16.10;99.90;;;;;;4825622;29;20592;-39
2022/07/03 01:48:24;;;;;;;4.03;2.35;;;16.10;99.90;;;;;;4841381;29;20519;-38
2022/07/03 01:50:51;;;;;;;9.70;3.35;;;16.10;99.90;;;;;;4857759;29;20054;-38
2022/07/03 01:53:17;;;;;;;4.03;3.25;;;16.10;99.90;;;;;;4857240;29;20086;-38
2022/07/03 01:55:45;;;;;;;5.53;3.17;;;16.10;99.90;;;;;;4853665;29;20497;-38
2022/07/03 01:58:12;;;;;;;5.55;3.30;;;16.10;99.90;;;;;;4834319;29;20054;-38
2022/07/03 02:01:15;;;;;;;5.55;3.75;;;16.10;99.90;;;;;;4857496;29;20080;-38
2022/07/03 02:03:46;;;;;;;5.20;3.28;;;16.10;99.90;;;;;;4854204;29;20057;-39
2022/07/03 02:06:35;;;;;;;5.25;3.25;;;16.10;99.90;;;;;;4838314;29;20134;-39
2022/07/03 02:09:05;;;;;;;6.05;3.75;;;16.00;99.90;;;;;;4836750;29;20054;-38
2022/07/03 02:11:36;;;;;;;6.35;3.55;;;16.00;99.90;;;;;;4839033;29;20097;-38
2022/07/03 02:14:11;;;;;;;5.38;3.13;;;16.00;99.90;;;;;;4838599;29;20082;-38
2022/07/03 02:17:17;;;;;;;7.72;3.58;;;16.00;99.90;;;;;;4828608;29;20050;-39
2022/07/03 02:19:49;;;;;;;7.97;3.38;;;16.00;99.90;;;;;;4854754;29;20055;-38
2022/07/03 02:22:17;;;;;;;7.53;3.63;;;16.00;99.90;;;;;;4847009;29;20057;-38
2022/07/03 02:24:45;;;;;;;6.65;3.90;;;16.00;99.90;;;;;;4851136;29;20053;-38
2022/07/03 02:27:22;;;;;;;6.88;3.88;;;15.90;99.90;;;;;;4832986;29;20120;-38
2022/07/03 02:29:54;;;;;;;5.72;3.92;;;15.90;99.90;;;;;;4857764;29;20509;-38
2022/07/03 02:32:22;;;;;;;7.72;4.43;;;15.90;99.90;;;;;;4856347;29;20053;-41
2022/07/03 02:34:58;;;;;;;4.65;3.30;;;15.90;99.90;;;;;;4855630;29;20057;-38
2022/07/03 02:37:28;;;;;;;4.57;3.47;;;15.90;99.90;;;;;;4837331;29;20050;-39
2022/07/03 02:40:04;;;;;;;4.20;3.50;;;15.90;99.90;;;;;;4857869;29;20057;-39
2022/07/03 02:42:38;;;;;;;6.38;3.83;;;15.90;99.90;;;;;;4856636;29;20381;-39
2022/07/03 02:45:05;;;;;;;4.55;3.58;;;15.90;99.90;;;;;;4855228;29;20388;-38
2022/07/03 02:47:38;;;;;;;4.90;3.38;;;15.90;99.90;;;;;;4838555;29;20417;-38
2022/07/03 02:50:08;;;;;;;4.97;3.88;;;15.90;99.90;;;;;;4838812;29;20069;-38
2022/07/03 02:52:40;;;;;;;6.05;3.22;;;15.80;99.90;;;;;;4839866;29;20055;-38
2022/07/03 02:55:31;;;;;;;7.35;3.88;;;15.80;99.90;;;;;;4860897;29;20517;-38
2022/07/03 02:58:25;;;;;;;5.80;3.88;;;15.80;99.90;;;;;;4844871;29;20049;-38
2022/07/03 03:01:12;;;;;;;6.57;3.60;;;15.80;99.90;;;;;;4842483;29;20054;-38
2022/07/03 03:03:45;;;;;;;5.07;3.55;;;15.70;99.90;;;;;;4840124;29;20054;-38
2022/07/03 03:06:15;;;;;;;4.18;3.60;;;15.70;99.90;;;;;;4847838;29;20117;-39
2022/07/03 03:08:54;;;;;;;6.95;3.83;;;15.70;99.90;;;;;;4834620;29;20498;-38
2022/07/03 03:11:28;;;;;;;4.07;3.67;;;15.70;99.90;;;;;;4842457;29;20058;-38
2022/07/03 03:13:57;;;;;;;6.00;4.00;;;15.70;99.90;;;;;;4859853;29;20137;-38
2022/07/03 03:16:23;;;;;;;4.40;4.00;;;15.70;99.90;;;;;;4833179;29;20042;-38
2022/07/03 03:18:49;;;;;;;6.97;4.60;;;15.70;99.90;;;;;;4836766;29;20050;-38
2022/07/03 03:21:20;;;;;;;8.38;4.63;;;15.70;99.90;;;;;;4854851;29;20056;-38
2022/07/03 03:23:52;;;;;;;7.43;4.10;;;15.70;99.90;;;;;;4859633;29;20049;-38
2022/07/03 03:26:28;;;;;;;7.80;3.90;;;15.70;99.90;;;;;;4838268;29;20045;-39
2022/07/03 03:28:54;;;;;;;7.72;3.92;;;15.60;99.90;;;;;;4846003;29;20053;-38
2022/07/03 03:31:20;;;;;;;8.65;3.90;;;15.60;99.90;;;;;;4841623;29;20064;-39
2022/07/03 03:33:49;;;;;;;5.28;4.40;;;15.60;99.90;;;;;;4841106;29;20441;-39
2022/07/03 03:36:17;;;;;;;6.55;4.03;;;15.60;99.90;;;;;;4837288;29;20292;-39
2022/07/03 03:38:43;;;;;;;6.53;4.18;;;15.50;99.90;;;;;;4849112;29;20057;-38
2022/07/03 03:41:09;;;;;;;7.25;3.80;;;15.50;99.90;;;;;;4841780;29;20524;-38
2022/07/03 03:43:35;;;;;;;6.68;3.55;;;15.50;99.90;;;;;;4852746;29;20049;-38
2022/07/03 03:46:02;;;;;;;4.45;3.67;;;15.40;99.90;;;;;;4859723;29;20493;-38
2022/07/03 03:48:29;;;;;;;4.50;3.80;;;15.30;99.90;;;;;;4843298;29;20057;-38
2022/07/03 03:50:56;;;;;;;6.93;3.70;;;15.20;99.90;;;;;;4856318;29;20066;-38
2022/07/03 03:53:24;;;;;;;3.95;3.60;;;15.30;99.90;;;;;;4851234;29;20128;-38
2022/07/03 03:56:10;;;;;;;5.88;3.83;;;15.20;99.90;;;;;;4843112;29;20055;-38
2022/07/03 03:58:38;;;;;;;5.18;4.30;;;15.10;99.90;;;;;;4839091;29;20130;-38
2022/07/03 04:01:05;;;;;;;4.57;4.05;;;15.10;99.90;;;;;;4840803;29;20065;-38
2022/07/03 04:03:32;;;;;;;5.35;4.07;;;15.00;99.90;;;;;;4856791;29;20506;-38
2022/07/03 04:05:58;;;;;;;6.22;4.55;;;15.00;99.90;;;;;;4859592;29;20416;-38
2022/07/03 04:08:25;;;;;;;6.80;4.60;;;15.00;99.90;;;;;;4843874;29;20130;-38
2022/07/03 04:10:51;;;;;;;5.28;4.78;;;15.00;99.90;;;;;;4859806;29;20054;-38
2022/07/03 04:13:19;;;;;;;4.85;4.20;;;15.00;99.90;;;;;;4856222;29;20140;-38
2022/07/03 04:15:45;;;;;;;5.43;4.72;;;15.00;99.90;;;;;;4847062;29;20069;-38
2022/07/03 04:18:11;;;;;;;5.15;4.28;;;15.00;99.90;;;;;;4833628;29;20487;-38
2022/07/03 04:20:37;;;;;;;7.05;4.47;;;15.00;99.90;;;;;;4856631;29;20124;-38
2022/07/03 04:23:03;;;;;;;7.28;4.57;;;15.00;99.90;;;;;;4856290;29;20050;-39
2022/07/03 04:25:29;;;;;;;4.57;4.10;;;15.00;99.90;;;;;;4839806;29;20055;-38
2022/07/03 04:27:55;;;;;;;5.80;4.20;;;15.00;99.90;;;;;;4840122;29;20124;-38
2022/07/03 04:30:21;;;;;;;5.05;3.70;;;15.00;99.90;;;;;;4858172;29;20052;-38
2022/07/03 04:32:47;;;;;;;6.60;3.90;;;15.10;99.90;;;;;;4857020;29;20502;-38
2022/07/03 04:35:13;;;;;;;6.28;3.92;;;15.10;99.90;;;;;;4854012;29;20042;-38
2022/07/03 04:37:39;;;;;;;8.00;4.35;;;15.10;99.90;;;;;;4841767;29;20077;-38
2022/07/03 04:40:06;;;;;;;4.80;4.38;;;15.10;99.90;;;;;;4859238;29;20541;-38
2022/07/03 04:42:31;;;;;;;5.68;4.43;;;15.20;99.90;;;;;;4858096;29;20107;-38
2022/07/03 04:44:57;;;;;;;6.40;4.70;;;15.20;99.90;;;;;;4856759;29;20041;-38
2022/07/03 04:47:23;;;;;;;7.07;4.20;;;15.30;99.90;;;;;;4842612;29;20098;-38
2022/07/03 04:49:48;;;;;;;7.32;5.03;;;15.30;99.90;;;;;;4858807;29;20095;-38
2022/07/03 04:52:14;;;;;;;8.88;6.03;;;15.40;99.90;;;;;;4844140;29;20326;-38
2022/07/03 04:54:40;;;;;;;9.75;5.50;;;15.50;99.90;;;;;;4848481;29;20056;-38
2022/07/03 04:57:06;;;;;;;8.70;5.82;;;15.50;99.90;;;;;;4843410;29;20516;-38
2022/07/03 04:59:31;;;;;;;5.32;4.82;;;15.60;99.90;;;;;;4857028;29;20045;-39
2022/07/03 05:01:57;;;;;;;6.68;5.20;;;15.70;99.90;;;;;;4839969;29;20107;-39
2022/07/03 05:04:23;;;;;;;8.07;5.50;;;15.80;99.90;;;;;;4848072;29;20042;-39
2022/07/03 05:06:48;;;;;;;7.53;5.22;;;15.90;99.90;;;;;;4826858;29;20144;-38
2022/07/03 05:09:14;;;;;;;6.00;4.82;;;16.00;99.90;;;;;;4857828;29;20077;-38
2022/07/03 05:11:41;;;;;;;5.40;4.63;;;16.20;99.90;;;;;;4858436;29;20109;-39
2022/07/03 05:14:07;;;;;;;6.82;4.85;;;16.30;99.90;;;;;;4857657;29;20060;-39
2022/07/03 05:16:32;;;;;;;5.47;3.88;;;16.40;99.90;;;;;;4832786;29;20126;-39
2022/07/03 05:18:58;;;;;;;5.57;4.18;;;16.60;99.90;;;;;;4846320;29;20060;-39
2022/07/03 05:21:24;;;;;;;4.20;3.55;;;16.70;99.90;;;;;;4858365;29;20061;-38
2022/07/03 05:23:50;;;;;;;4.15;3.58;;;16.80;99.90;;;;;;4852547;29;20050;-39
2022/07/03 05:26:16;;;;;;;5.40;3.67;;;16.90;99.90;;;;;;4831578;29;20109;-39
2022/07/03 05:28:42;;;;;;;5.68;3.33;;;17.00;99.90;;;;;;4836022;29;20046;-38
2022/07/03 05:31:07;;;;;;;6.53;3.20;;;17.20;99.90;;;;;;4850305;29;20045;-39
2022/07/03 05:33:33;;;;;;;4.68;3.30;;;17.30;99.90;;;;;;4849384;29;20553;-39
2022/07/03 05:35:59;;;;;;;6.57;3.30;;;17.30;99.90;;;;;;4851926;29;20057;-40
2022/07/03 05:41:10;;;;;;;4.43;2.95;;;17.50;99.90;;;;;;4839724;29;20413;-39
2022/07/03 05:43:36;;;;;;;3.25;2.85;;;17.50;99.90;;;;;;4850512;29;20049;-38
2022/07/03 05:46:03;;;;;;;4.28;2.80;;;17.60;99.90;;;;;;4857902;29;20412;-38
2022/07/03 05:48:29;;;;;;;7.85;3.13;;;17.60;99.90;;;;;;4841357;29;20573;-39
2022/07/03 05:50:55;;;;;;;3.70;2.47;;;17.70;99.90;;;;;;4858113;29;20047;-39
2022/07/03 05:53:21;;;;;;;3.35;2.55;;;17.70;99.90;;;;;;4856784;29;20104;-39
2022/07/03 05:55:46;;;;;;;3.55;2.30;;;17.80;99.90;;;;;;4841548;29;20508;-39
2022/07/03 05:58:12;;;;;;;3.42;2.45;;;17.90;99.90;;;;;;4823621;29;20459;-39
2022/07/03 06:00:38;;;;;;;5.53;2.70;;;17.90;99.90;;;;;;4843238;29;20085;-39
2022/07/03 06:03:04;;;;;;;3.40;2.42;;;18.00;99.90;;;;;;4838894;29;20049;-38
2022/07/03 06:05:30;;;;;;;4.97;2.70;;;18.20;99.90;;;;;;4824625;29;20058;-39
2022/07/03 06:07:55;;;;;;;4.82;2.17;;;18.20;99.90;;;;;;4823113;29;20068;-40
2022/07/03 06:10:21;;;;;;;4.45;2.00;;;18.30;99.90;;;;;;4856114;29;20153;-39
2022/07/03 06:12:47;;;;;;;4.47;2.03;;;18.40;99.90;;;;;;4845995;29;20092;-38
2022/07/03 06:15:13;;;;;;;4.85;1.85;;;18.40;99.90;;;;;;4844992;29;20080;-39
2022/07/03 06:17:39;;;;;;;4.65;1.50;;;18.50;99.90;;;;;;4834930;29;20634;-39
2022/07/03 06:20:06;;;;;;;2.67;1.50;;;18.50;99.90;;;;;;4852173;29;20410;-39
2022/07/03 06:22:32;;;;;;;3.88;1.67;;;18.60;99.90;;;;;;4838721;29;20477;-39
2022/07/03 06:24:59;;;;;;;2.47;1.25;;;18.60;99.90;;;;;;4847513;29;20054;-38
2022/07/03 06:27:25;;;;;;;3.38;1.40;;;18.60;99.90;;;;;;4837916;29;20589;-39
2022/07/03 06:29:50;;;;;;;2.92;1.38;;;18.70;99.90;;;;;;4843929;29;20045;-40
2022/07/03 06:32:17;;;;;;;4.28;1.55;;;18.70;99.90;;;;;;4831966;29;20058;-39
2022/07/03 06:34:43;;;;;;;2.60;1.92;;;18.70;99.90;;;;;;4860555;29;20110;-39
2022/07/03 06:37:09;;;;;;;4.43;1.60;;;18.80;99.90;;;;;;4844881;29;20136;-38
2022/07/03 06:39:35;;;;;;;2.80;1.35;;;18.80;99.90;;;;;;4851987;29;20065;-39
2022/07/03 06:42:01;;;;;;;2.00;1.33;;;18.80;99.90;;;;;;4846659;29;20050;-40
2022/07/03 06:44:26;;;;;;;3.13;1.50;;;18.80;99.90;;;;;;4831430;29;20049;-42
2022/07/03 06:46:53;;;;;;;6.80;1.52;;;18.90;99.90;;;;;;4805082;29;20142;-39
2022/07/03 06:49:19;;;;;;;2.20;1.25;;;18.90;99.90;;;;;;4855683;29;20061;-38
2022/07/03 06:51:45;;;;;;;4.03;1.00;;;18.90;99.90;;;;;;4856261;29;20064;-39
2022/07/03 06:54:11;;;;;;;3.17;1.20;;;18.80;99.90;;;;;;4851818;29;20041;-39
2022/07/03 06:56:36;;;;;;;2.63;1.00;;;18.80;99.90;;;;;;4830852;29;20158;-39
2022/07/03 06:59:02;;;;;;;3.13;1.48;;;18.80;99.90;;;;;;4854637;29;20523;-39
2022/07/03 07:01:28;;;;;;;3.05;1.20;;;18.90;99.90;;;;;;4856086;29;20045;-39
2022/07/03 07:03:53;;;;;;;3.17;1.50;;;18.90;99.90;;;;;;4855338;29;20038;-38
2022/07/03 07:06:19;;;;;;;4.45;1.30;;;18.90;99.90;;;;;;4844461;29;20152;-39
2022/07/03 07:08:45;;;;;;;2.63;1.33;;;19.00;99.90;;;;;;4840993;29;20053;-38
2022/07/03 07:11:11;;;;;;;4.88;1.25;;;19.00;99.90;;;;;;4843918;29;20106;-38
2022/07/03 07:13:37;;;;;;;2.35;1.27;;;19.10;99.90;;;;;;4844951;29;20459;-39
2022/07/03 07:16:03;;;;;;;2.95;1.10;;;19.10;99.90;;;;;;4849447;29;20042;-39
2022/07/03 07:18:28;;;;;;;2.45;0.98;;;19.20;99.90;;;;;;4816404;29;20095;-39
2022/07/03 07:20:54;;;;;;;1.35;0.88;;;19.30;99.90;;;;;;4846694;29;20102;-39
2022/07/03 07:23:19;;;;;;;2.90;1.15;;;19.30;99.90;;;;;;4842680;29;20050;-40
2022/07/03 07:25:45;;;;;;;1.65;0.93;;;19.30;99.90;;;;;;4843535;29;20200;-39
2022/07/03 07:28:11;;;;;;;1.92;1.10;;;19.40;99.90;;;;;;4816427;29;20439;-39
2022/07/03 07:30:39;;;;;;;0.90;0.50;;;19.30;99.90;;;;;;4845318;29;20050;-39
2022/07/03 07:33:07;;;;;;;1.77;1.20;;;19.40;99.90;;;;;;4842471;29;20125;-39
2022/07/03 07:35:33;;;;;;;3.80;1.00;;;19.40;99.90;;;;;;4847184;29;20038;-40
2022/07/03 07:37:59;;;;;;;2.38;1.30;;;19.40;99.90;;;;;;4831941;29;20053;-39
2022/07/03 07:40:25;;;;;;;2.33;1.20;;;19.40;99.90;;;;;;4846377;29;20049;-39
2022/07/03 07:42:50;;;;;;;3.53;1.10;;;19.40;99.90;;;;;;4823415;29;20447;-39
2022/07/03 07:45:16;;;;;;;3.88;1.08;;;19.40;99.90;;;;;;4830887;29;20064;-39
2022/07/03 07:47:42;;;;;;;2.05;0.70;;;19.50;99.90;;;;;;4829625;29;20117;-39
2022/07/03 07:50:08;;;;;;;1.65;0.70;;;19.60;99.90;;;;;;4839699;29;20162;-40
2022/07/03 07:52:34;;;;;;;2.30;0.77;;;19.60;99.90;;;;;;4839249;29;20049;-39
2022/07/03 07:54:59;;;;;;;2.72;0.82;;;19.60;99.90;;;;;;4842756;29;20481;-39
2022/07/03 07:57:25;;;;;;;4.10;0.80;;;19.60;99.90;;;;;;4827471;29;20066;-39
2022/07/03 07:59:51;;;;;;;2.05;0.60;;;19.70;99.90;;;;;;4839795;29;20094;-39
2022/07/03 08:07:45;;;;;;;5.25;0.70;;;19.90;99.90;;;;;;4836883;29;20434;-39
2022/07/03 08:10:11;;;;;;;2.92;0.47;;;19.90;99.90;;;;;;4858134;29;20069;-39
2022/07/03 08:12:36;;;;;;;2.00;0.40;;;19.90;99.90;;;;;;4858405;29;20049;-39
2022/07/03 08:15:02;;;;;;;1.85;0.32;;;20.00;99.90;;;;;;4857317;29;20065;-39
2022/07/03 08:17:28;;;;;;;2.42;0.40;;;20.10;99.90;;;;;;4824159;29;20112;-39
2022/07/03 08:19:54;;;;;;;2.50;0.40;;;20.10;99.90;;;;;;4841304;29;20049;-39
2022/07/03 08:22:19;;;;;;;1.05;0.20;;;20.00;99.90;;;;;;4848047;29;20129;-39
2022/07/03 08:24:45;;;;;;;1.60;0.50;;;20.10;99.90;;;;;;4851709;29;20057;-39
2022/07/03 08:27:11;;;;;;;4.47;0.60;;;20.10;99.90;;;;;;4833679;29;20042;-39
2022/07/03 08:29:37;;;;;;;1.42;0.30;;;20.10;99.90;;;;;;4844059;29;20049;-39
2022/07/03 08:32:03;;;;;;;1.55;0.20;;;20.20;99.90;;;;;;4839426;29;20065;-39
2022/07/03 08:34:29;;;;;;;1.58;0.43;;;20.20;99.90;;;;;;4854965;29;20042;-39
2022/07/03 08:36:55;;;;;;;1.85;0.30;;;20.20;99.90;;;;;;4822477;29;20454;-38
2022/07/03 08:39:21;;;;;;;1.67;0.40;;;20.20;99.90;;;;;;4835254;29;20132;-39
2022/07/03 08:41:49;;;;;;;0.85;0.20;;;20.20;99.90;;;;;;4856397;29;20126;-38
2022/07/03 08:44:16;;;;;;;1.27;0.32;;;20.20;99.90;;;;;;4832964;29;20565;-39
2022/07/03 08:46:43;;;;;;;3.08;0.38;;;20.30;99.90;;;;;;4811644;29;20061;-39
2022/07/03 08:49:09;;;;;;;1.80;0.32;;;20.30;99.90;;;;;;4820096;29;20058;-38
2022/07/03 08:51:36;;;;;;;3.40;0.35;;;20.30;99.90;;;;;;4837859;29;20053;-39
2022/07/03 08:54:02;;;;;;;2.22;0.40;;;20.40;99.90;;;;;;4836231;29;20441;-38
2022/07/03 08:56:28;;;;;;;2.03;0.43;;;20.40;99.90;;;;;;4810152;29;20197;-39
2022/07/03 08:58:57;;;;;;;2.00;0.40;;;20.40;99.90;;;;;;4832464;29;20562;-39
2022/07/03 09:01:23;;;;;;;3.22;0.50;;;20.40;99.90;;;;;;4836797;29;20046;-39
2022/07/03 09:03:51;;;;;;;1.92;0.40;;;20.50;99.90;;;;;;4850676;29;20136;-39
2022/07/03 09:06:17;;;;;;;1.60;0.40;;;20.50;99.90;;;;;;4843713;29;20137;-39
2022/07/03 09:08:43;;;;;;;2.55;0.22;;;20.50;99.90;;;;;;4847867;29;20509;-40
2022/07/03 09:11:10;;;;;;;1.10;0.40;;;20.50;99.90;;;;;;4851118;29;20428;-40
2022/07/03 09:13:36;;;;;;;1.98;0.43;;;20.60;99.90;;;;;;4854897;29;20520;-39
2022/07/03 09:16:02;;;;;;;4.85;0.20;;;20.60;99.90;;;;;;4851898;29;20053;-39
2022/07/03 09:18:41;;;;;;;1.42;0.40;;;20.60;99.90;;;;;;4835414;29;20050;-39
2022/07/03 09:21:08;;;;;;;1.45;0.13;;;20.70;99.90;;;;;;4850489;29;20055;-39
2022/07/03 09:23:42;;;;;;;2.38;0.32;;;20.80;99.90;;;;;;4850520;29;20431;-40
2022/07/03 09:26:16;;;;;;;2.42;0.50;;;20.80;99.90;;;;;;4833675;29;20060;-39
2022/07/03 09:28:43;;;;;;;1.27;0.20;;;20.90;99.90;;;;;;4840935;29;20054;-39
2022/07/03 09:31:11;;;;;;;1.20;0.38;;;20.90;99.90;;;;;;4843615;29;20506;-39
2022/07/03 09:33:58;;;;;;;2.10;0.20;;;20.90;99.90;;;;;;4837618;29;20674;-39
2022/07/03 09:36:47;;;;;;;1.85;0.30;;;20.90;99.90;;;;;;4840069;29;20046;-39
2022/07/03 09:39:36;;;;;;;0.57;0.30;;;20.90;99.90;;;;;;4842870;29;20060;-39
2022/07/03 09:42:04;;;;;;;1.17;0.30;;;21.00;99.90;;;;;;4855198;29;20084;-39
2022/07/03 09:44:37;;;;;;;2.40;0.30;;;21.00;99.90;;;;;;4851931;29;20041;-38
2022/07/03 09:47:17;;;;;;;3.25;0.30;;;21.10;99.90;;;;;;4836104;29;20058;-40
2022/07/03 09:49:59;;;;;;;2.70;0.32;;;21.20;99.90;;;;;;4834001;29;20115;-39
2022/07/03 09:52:40;;;;;;;1.65;0.40;;;21.20;99.90;;;;;;4823825;29;20058;-38
2022/07/03 09:55:09;;;;;;;2.70;0.52;;;21.10;99.90;;;;;;4838130;29;20067;-38
2022/07/03 09:57:50;;;;;;;1.63;0.30;;;21.10;99.90;;;;;;4839196;29;20049;-39
2022/07/03 10:00:27;;;;;;;9.55;0.60;;;21.20;99.90;;;;;;4841919;29;20953;-38
2022/07/03 10:03:04;;;;;;;3.40;0.45;;;21.20;99.90;;;;;;4853076;29;20524;-39
2022/07/03 10:05:40;;;;;;;2.03;0.47;;;21.20;99.90;;;;;;4828511;29;20053;-39
2022/07/03 10:08:11;;;;;;;2.42;0.40;;;21.20;99.90;;;;;;4839124;29;20058;-38
2022/07/03 10:10:38;;;;;;;;;;;21.30;99.90;;;;;;4855556;29;20159;-39
2022/07/03 10:13:04;;;;;;;2.30;0.50;;;21.30;99.90;;;;;;4854175;29;19932;-39
2022/07/03 10:15:32;;;;;;;4.53;0.35;;;21.40;99.90;;;;;;4825484;29;20045;-39
2022/07/03 10:17:59;;;;;;;2.47;0.30;;;21.50;99.90;;;;;;4838893;29;20132;-39
2022/07/03 10:20:28;;;;;;;1.77;0.20;;;21.50;99.90;;;;;;4838006;29;20038;-38
2022/07/03 10:22:55;;;;;;;1.90;0.47;;;21.60;99.90;;;;;;4840576;29;20132;-39
2022/07/03 10:25:21;;;;;;;1.05;0.30;;;21.60;99.90;;;;;;4836408;29;20057;-39
2022/07/03 10:27:48;;;;;;;1.80;0.40;;;21.70;99.90;;;;;;4821302;29;20510;-39
2022/07/03 10:30:19;;;;;;;1.67;0.38;;;21.70;99.90;;;;;;4836085;29;20042;-40
2022/07/03 10:32:46;;;;;;;3.60;0.38;;;21.70;99.90;;;;;;4852269;29;20057;-38
2022/07/03 10:35:14;;;;;;;1.38;0.30;;;21.70;99.90;;;;;;4855449;29;20497;-38
2022/07/03 10:38:03;;;;;;;1.58;0.52;;;21.80;99.90;;;;;;4837760;29;20057;-38
2022/07/03 10:46:17;;;;;;;1.95;0.40;;;21.80;99.90;;;;;;4830508;29;20069;-38
2022/07/03 10:49:11;;;;;;;2.70;0.40;;;21.90;99.90;;;;;;4851084;29;20058;-38
2022/07/03 10:51:53;;;;;;;5.32;0.60;;;21.90;99.90;;;;;;4846937;29;20153;-37
2022/07/03 10:54:25;;;;;;;1.25;0.30;;;21.90;99.90;;;;;;4850560;29;20055;-38
2022/07/03 10:57:00;;;;;;;2.85;0.22;;;21.80;99.90;;;;;;4772153;29;20056;-37
2022/07/03 10:59:31;;;;;;;1.85;0.32;;;21.80;99.90;;;;;;4845146;29;20520;-38
2022/07/03 11:02:21;;;;;;;1.15;0.30;;;21.90;99.90;;;;;;4847062;29;20049;-38
2022/07/03 11:05:07;;;;;;;1.45;0.40;;;21.90;99.90;;;;;;4842530;29;20050;-38
2022/07/03 11:07:34;;;;;;;3.45;0.70;;;21.90;99.90;;;;;;4825558;29;20057;-38
2022/07/03 11:10:20;;;;;;;3.30;0.80;;;21.90;99.90;;;;;;4848658;29;20057;-38
2022/07/03 11:13:05;;;;;;;2.08;0.50;;;21.90;99.90;;;;;;4830903;29;20581;-39
2022/07/03 11:15:32;;;;;;;5.22;0.80;;;21.80;99.90;;;;;;4855953;29;20076;-37
2022/07/03 11:18:27;;;;;;;4.05;0.88;;;21.80;99.90;;;;;;4836945;29;20077;-38
2022/07/03 11:20:52;;;;;;;5.75;1.23;;;21.80;99.90;;;;;;4848061;29;20053;-38
2022/07/03 11:23:30;;;;;;;6.03;1.40;;;21.80;99.90;;;;;;4848048;29;20129;-38
2022/07/03 11:25:59;;;;;;;5.03;1.40;;;21.90;99.90;;;;;;4850070;29;20106;-38
2022/07/03 11:28:34;;;;;;;5.78;1.23;;;21.80;99.90;;;;;;4815550;29;20053;-38
2022/07/03 11:31:09;;;;;;;3.95;1.15;;;21.70;99.90;;;;;;4850260;29;20545;-38
2022/07/03 11:33:41;;;;;;;6.18;1.25;;;21.70;99.90;;;;;;4853327;29;20136;-38
2022/07/03 11:36:09;;;;;;;8.32;1.33;;;21.70;99.90;;;;;;4851213;29;20056;-39
2022/07/03 11:38:35;;;;;;;5.10;1.20;;;21.70;99.90;;;;;;4828724;29;20050;-38
2022/07/03 11:41:05;;;;;;;5.63;1.35;;;21.80;99.90;;;;;;4835399;29;20054;-38
2022/07/03 11:43:31;;;;;;;6.10;1.30;;;21.80;99.90;;;;;;4847627;29;20052;-37
2022/07/03 11:45:57;;;;;;;4.25;1.05;;;21.90;99.90;;;;;;4848272;29;20405;-38
2022/07/03 11:48:26;;;;;;;17.17;1.48;;;21.90;99.90;;;;;;4825534;29;20090;-38
2022/07/03 11:50:52;;;;;;;3.75;1.02;;;22.00;99.90;;;;;;4841800;29;20057;-38
2022/07/03 11:53:27;;;;;;;7.28;1.00;;;22.00;99.90;;;;;;4847930;29;20153;-38
2022/07/03 11:55:55;;;;;;;3.67;0.98;;;22.00;99.90;;;;;;4839590;29;20187;-38
2022/07/03 11:58:21;;;;;;;4.22;0.90;;;22.00;99.90;;;;;;4841739;29;20155;-38
2022/07/03 12:00:47;;;;;;;8.18;0.95;;;22.00;99.90;;;;;;4836776;29;20065;-38
2022/07/03 12:03:31;;;;;;;5.95;1.02;;;21.90;99.90;;;;;;4853267;29;20132;-38
2022/07/03 12:05:58;;;;;;;6.03;1.15;;;21.90;99.90;;;;;;4832998;29;20943;-39
2022/07/03 12:08:34;;;;;;;7.35;0.80;;;21.90;99.90;;;;;;4840698;29;20563;-38
2022/07/03 12:11:03;;;;;;;6.90;1.10;;;22.00;99.90;;;;;;4854995;29;20087;-38
2022/07/03 12:13:30;;;;;;;3.53;0.77;;;22.10;99.90;;;;;;4849070;29;20701;-34
2022/07/03 12:16:31;;;;;;;6.28;0.85;;;22.20;99.90;;;;;;4858868;29;20060;-36
2022/07/03 12:19:05;;;;;;;4.40;0.90;;;22.30;99.90;;;;;;4835226;29;20053;-35
2022/07/03 12:21:39;;;;;;;4.82;0.93;;;22.30;99.90;;;;;;4826081;29;20089;-36
2022/07/03 12:24:13;;;;;;;9.65;1.02;;;22.50;99.90;;;;;;4831535;29;20509;-36
2022/07/03 12:26:39;;;;;;;4.18;1.00;;;22.70;99.90;;;;;;4841408;29;20556;-36
2022/07/03 12:29:18;;;;;;;3.65;0.60;;;22.70;99.90;;;;;;4844733;29;20046;-36
2022/07/03 12:31:46;;;;;;;6.10;1.15;;;22.70;99.90;;;;;;4847425;29;20561;-36
2022/07/03 12:34:13;;;;;;;1.75;0.55;;;22.50;99.90;;;;;;4842742;29;20081;-35
2022/07/03 12:36:40;;;;;;;6.65;0.98;;;22.40;99.90;;;;;;4836502;29;20539;-36
2022/07/03 12:39:06;;;;;;;4.70;0.77;;;22.40;99.90;;;;;;4842889;29;20038;-36
2022/07/03 12:41:32;;;;;;;3.88;0.80;;;22.30;99.90;;;;;;4845712;29;20059;-36
2022/07/03 12:43:59;;;;;;;2.92;0.70;;;22.40;99.90;;;;;;4846567;29;20053;-36
2022/07/03 12:46:31;;;;;;;7.68;0.80;;;22.40;99.90;;;;;;4837385;29;20554;-36
2022/07/03 12:48:58;;;;;;;2.42;0.50;;;22.40;99.90;;;;;;4849373;29;20084;-36
2022/07/03 12:51:51;;;;;;;2.65;0.50;;;22.60;99.90;;;;;;4849322;29;20062;-36
2022/07/03 12:54:32;;;;;;;3.08;0.50;;;22.70;99.90;;;;;;4837948;29;20539;-36
2022/07/03 13:00:10;;;;;;;3.83;0.55;;;22.80;99.90;;;;;;4848338;29;20061;-36
2022/07/03 13:02:40;;;;;;;3.03;0.70;;;22.80;99.90;;;;;;4847254;29;20544;-36
2022/07/03 13:05:25;;;;;;;2.35;0.50;;;22.80;99.90;;;;;;4853983;29;20110;-36
2022/07/03 13:07:55;;;;;;;11.50;1.05;;;22.80;99.90;;;;;;4842334;29;20425;-36
2022/07/03 13:10:23;;;;;;;2.47;0.60;;;22.70;99.90;;;;;;4853581;29;20206;-36
2022/07/03 13:12:53;;;;;;;2.17;0.52;;;22.50;99.90;;;;;;4854075;29;20532;-36
2022/07/03 13:15:23;;;;;;;4.78;0.60;;;22.50;99.90;;;;;;4851287;29;20512;-36
2022/07/03 13:17:55;;;;;;;4.22;0.43;;;22.50;99.90;;;;;;4823060;29;20049;-36
2022/07/03 13:20:21;;;;;;;2.50;0.68;;;22.40;99.90;;;;;;4853977;29;20098;-36